Hauptseite
METAR-TAF:

METAR-TAF

Flughäfen :

Cairns, Australien

Cairns Airport

Breite: 16-53S, Länge: 145-45E, Höhe: 3 m

Beobachtung

Neuester Wetterbericht von vor 26 Minuten, um 02:00 UTC
Wind 9 kt aus Nordost
Temperatur 28°C
Luftfeuchtigkeit 66%
Luftdruck 1012 hPa
Sichtweite 10 km oder mehr
Leicht bewölkt in der Höhe von 2500 ft

METAR: YBCS 230200Z 05009KT 9999 FEW025 28/21 Q1012 NOSIG

Zeit: 12:26 (02:26 UTC)

Prognose

Neuester Wetterbericht von vor 2 Stunden und 38 Minuten, um 23:48 UTC
Gültige Prognose vom 23 um 00 UTC bis 23 um 24 UTC
Wind 8 kt aus Nordost
Sichtweite 10 km oder mehr
Leicht bewölkt in der Höhe von 2500 ft
Aufgelockert bewölkt in der Höhe von 4500 ft
Ab 23 um 0900 UTC
Wind 8 kt aus Süd/Südost
Sichtweite 10 km oder mehr
Leicht bewölkt in der Höhe von 2500 ft
Aufgelockert bewölkt in der Höhe von 4000 ft

TAF: YBCS 222348Z 2300/2324 05008KT 9999 FEW025 SCT045 FM230900 16008KT 9999 FEW025 SCT040

Wetterbeobachtungen und Prognosen von mehr als 4000 Flughäfen (METAR und TAF Bericht).

Die verfügbaren Stationen werden durch gelbe und rote Markierungen auf der Karte dargestellt.

Führen Sie die Maus auf sie, um den Namen der Station zu sehen.

Darauf klicken, um die Beobachtung von Wetterbeobachtungen und Prognosen zu sehen.

Um die Karte zu ändern : klicken Sie auf den grünen Tasten mit einem schwarzen Kreuz Zum Vergrößern, auf den grünen Button mit einem Gedankenstrich zu verkleinern, oder auf die grünen Pfeile für benachbarte Karten.


METAR-TAF: